sensor_id;sensor_type;location;lat;lon;timestamp;temperature;humidity
2723;DHT22;1369;53.216;10.396;2022-11-13T08:57:28;6.80;99.90
2723;DHT22;1369;53.216;10.396;2022-11-13T08:59:54;6.70;99.90
2723;DHT22;1369;53.216;10.396;2022-11-13T09:02:20;6.70;99.90
2723;DHT22;1369;53.216;10.396;2022-11-13T09:04:45;6.70;99.90
2723;DHT22;1369;53.216;10.396;2022-11-13T09:07:10;6.70;99.90
2723;DHT22;1369;53.216;10.396;2022-11-13T09:09:36;6.80;99.90
2723;DHT22;1369;53.216;10.396;2022-11-13T09:12:01;6.80;99.90
2723;DHT22;1369;53.216;10.396;2022-11-13T09:14:27;6.80;99.90
2723;DHT22;1369;53.216;10.396;2022-11-13T09:16:52;6.80;99.90
2723;DHT22;1369;53.216;10.396;2022-11-13T09:19:18;6.80;99.90
2723;DHT22;1369;53.216;10.396;2022-11-13T09:21:43;6.90;99.90
2723;DHT22;1369;53.216;10.396;2022-11-13T09:24:09;6.90;99.90
2723;DHT22;1369;53.216;10.396;2022-11-13T09:26:34;6.90;99.90
2723;DHT22;1369;53.216;10.396;2022-11-13T09:29:00;6.90;99.90
2723;DHT22;1369;53.216;10.396;2022-11-13T09:31:25;7.00;99.90
2723;DHT22;1369;53.216;10.396;2022-11-13T09:33:51;7.00;99.90
2723;DHT22;1369;53.216;10.396;2022-11-13T09:36:16;6.90;99.90
2723;DHT22;1369;53.216;10.396;2022-11-13T09:38:42;6.80;99.90
2723;DHT22;1369;53.216;10.396;2022-11-13T09:41:20;6.70;99.90
2723;DHT22;1369;53.216;10.396;2022-11-13T09:43:51;6.80;99.90
2723;DHT22;1369;53.216;10.396;2022-11-13T09:49:23;6.70;99.90
2723;DHT22;1369;53.216;10.396;2022-11-13T09:51:56;6.80;99.90
2723;DHT22;1369;53.216;10.396;2022-11-13T09:54:22;6.80;99.90
2723;DHT22;1369;53.216;10.396;2022-11-13T09:57:00;6.90;99.90
2723;DHT22;1369;53.216;10.396;2022-11-13T09:59:53;6.90;99.90
2723;DHT22;1369;53.216;10.396;2022-11-13T10:10:17;7.10;99.90
2723;DHT22;1369;53.216;10.396;2022-11-13T10:12:48;7.10;99.90
2723;DHT22;1369;53.216;10.396;2022-11-13T10:15:16;7.10;99.90
2723;DHT22;1369;53.216;10.396;2022-11-13T10:20:45;7.30;99.90
2723;DHT22;1369;53.216;10.396;2022-11-13T10:23:19;7.20;99.90
2723;DHT22;1369;53.216;10.396;2022-11-13T10:25:46;7.20;99.90
2723;DHT22;1369;53.216;10.396;2022-11-13T10:28:20;7.20;99.90
2723;DHT22;1369;53.216;10.396;2022-11-13T10:30:48;7.30;99.90
2723;DHT22;1369;53.216;10.396;2022-11-13T10:33:19;7.30;99.90
2723;DHT22;1369;53.216;10.396;2022-11-13T10:36:01;7.30;99.90
2723;DHT22;1369;53.216;10.396;2022-11-13T10:38:53;7.30;99.90
2723;DHT22;1369;53.216;10.396;2022-11-13T10:41:22;7.30;99.90
2723;DHT22;1369;53.216;10.396;2022-11-13T10:43:56;7.30;99.90
2723;DHT22;1369;53.216;10.396;2022-11-13T10:46:24;7.40;99.90
2723;DHT22;1369;53.216;10.396;2022-11-13T10:48:51;7.40;99.90
2723;DHT22;1369;53.216;10.396;2022-11-13T10:51:31;7.50;99.90
2723;DHT22;1369;53.216;10.396;2022-11-13T10:53:57;7.50;99.90
2723;DHT22;1369;53.216;10.396;2022-11-13T10:56:33;7.50;99.90
2723;DHT22;1369;53.216;10.396;2022-11-13T10:59:01;7.50;99.90
2723;DHT22;1369;53.216;10.396;2022-11-13T11:01:27;7.50;99.90
2723;DHT22;1369;53.216;10.396;2022-11-13T11:03:53;7.60;99.90
2723;DHT22;1369;53.216;10.396;2022-11-13T11:06:18;7.60;99.90
2723;DHT22;1369;53.216;10.396;2022-11-13T11:08:44;7.70;99.90
2723;DHT22;1369;53.216;10.396;2022-11-13T11:11:15;7.70;99.90
2723;DHT22;1369;53.216;10.396;2022-11-13T11:14:21;7.80;99.90
2723;DHT22;1369;53.216;10.396;2022-11-13T11:16:47;7.80;99.90
2723;DHT22;1369;53.216;10.396;2022-11-13T11:19:14;7.90;99.90
2723;DHT22;1369;53.216;10.396;2022-11-13T11:21:41;7.90;99.90
2723;DHT22;1369;53.216;10.396;2022-11-13T11:24:23;7.90;99.90
2723;DHT22;1369;53.216;10.396;2022-11-13T11:26:58;8.00;99.90
2723;DHT22;1369;53.216;10.396;2022-11-13T11:38:26;7.90;99.90
2723;DHT22;1369;53.216;10.396;2022-11-13T11:41:22;8.00;99.90
2723;DHT22;1369;53.216;10.396;2022-11-13T11:44:00;8.00;99.90
2723;DHT22;1369;53.216;10.396;2022-11-13T11:46:27;8.10;99.90
2723;DHT22;1369;53.216;10.396;2022-11-13T11:49:03;8.00;99.90
2723;DHT22;1369;53.216;10.396;2022-11-13T11:51:34;8.10;99.90
2723;DHT22;1369;53.216;10.396;2022-11-13T11:54:26;8.20;99.90
2723;DHT22;1369;53.216;10.396;2022-11-13T11:57:11;8.30;99.90
2723;DHT22;1369;53.216;10.396;2022-11-13T12:00:05;8.40;99.90
2723;DHT22;1369;53.216;10.396;2022-11-13T12:02:54;8.40;99.90
2723;DHT22;1369;53.216;10.396;2022-11-13T12:05:27;8.50;99.90
2723;DHT22;1369;53.216;10.396;2022-11-13T12:08:18;8.60;99.90
2723;DHT22;1369;53.216;10.396;2022-11-13T12:10:57;8.60;99.90
2723;DHT22;1369;53.216;10.396;2022-11-13T12:13:31;8.60;99.90
2723;DHT22;1369;53.216;10.396;2022-11-13T12:16:15;8.60;99.90
2723;DHT22;1369;53.216;10.396;2022-11-13T12:19:02;8.70;99.90
2723;DHT22;1369;53.216;10.396;2022-11-13T12:21:55;8.70;99.90
2723;DHT22;1369;53.216;10.396;2022-11-13T12:34:50;8.70;99.90
2723;DHT22;1369;53.216;10.396;2022-11-13T12:37:56;8.70;99.90
2723;DHT22;1369;53.216;10.396;2022-11-13T12:40:41;8.70;99.90
2723;DHT22;1369;53.216;10.396;2022-11-13T12:43:30;8.70;99.90
2723;DHT22;1369;53.216;10.396;2022-11-13T12:46:10;8.80;99.90
2723;DHT22;1369;53.216;10.396;2022-11-13T12:48:43;8.80;99.90
2723;DHT22;1369;53.216;10.396;2022-11-13T12:51:12;8.80;99.90
2723;DHT22;1369;53.216;10.396;2022-11-13T12:53:47;8.80;99.90
2723;DHT22;1369;53.216;10.396;2022-11-13T12:58:52;8.70;99.90
2723;DHT22;1369;53.216;10.396;2022-11-13T13:01:19;8.70;99.90
2723;DHT22;1369;53.216;10.396;2022-11-13T13:09:46;8.70;99.90
2723;DHT22;1369;53.216;10.396;2022-11-13T13:12:41;8.70;99.90
2723;DHT22;1369;53.216;10.396;2022-11-13T13:20:44;8.70;99.90
2723;DHT22;1369;53.216;10.396;2022-11-13T13:23:12;8.70;99.90
2723;DHT22;1369;53.216;10.396;2022-11-13T13:25:39;8.70;99.90
2723;DHT22;1369;53.216;10.396;2022-11-13T13:30:47;8.70;99.90
2723;DHT22;1369;53.216;10.396;2022-11-13T13:41:32;8.70;99.90
2723;DHT22;1369;53.216;10.396;2022-11-13T13:46:36;8.70;99.90
2723;DHT22;1369;53.216;10.396;2022-11-13T13:49:11;8.70;99.90
2723;DHT22;1369;53.216;10.396;2022-11-13T13:51:47;8.80;99.90
2723;DHT22;1369;53.216;10.396;2022-11-13T13:54:17;8.70;99.90
2723;DHT22;1369;53.216;10.396;2022-11-13T13:56:44;8.70;99.90
2723;DHT22;1369;53.216;10.396;2022-11-13T13:59:34;8.70;99.90
2723;DHT22;1369;53.216;10.396;2022-11-13T14:02:02;8.70;99.90
2723;DHT22;1369;53.216;10.396;2022-11-13T14:04:32;8.70;99.90
2723;DHT22;1369;53.216;10.396;2022-11-13T14:06:59;8.70;99.90
2723;DHT22;1369;53.216;10.396;2022-11-13T14:09:27;8.80;99.90
2723;DHT22;1369;53.216;10.396;2022-11-13T14:14:25;8.80;99.90
2723;DHT22;1369;53.216;10.396;2022-11-13T14:16:53;8.70;99.90
2723;DHT22;1369;53.216;10.396;2022-11-13T14:19:20;8.80;99.90
2723;DHT22;1369;53.216;10.396;2022-11-13T14:21:48;8.70;99.90
2723;DHT22;1369;53.216;10.396;2022-11-13T14:27:14;8.70;99.90
2723;DHT22;1369;53.216;10.396;2022-11-13T14:29:47;8.70;99.90
2723;DHT22;1369;53.216;10.396;2022-11-13T14:32:24;8.70;99.90
2723;DHT22;1369;53.216;10.396;2022-11-13T14:34:52;8.70;99.90
2723;DHT22;1369;53.216;10.396;2022-11-13T14:37:35;8.70;99.90
2723;DHT22;1369;53.216;10.396;2022-11-13T14:40:22;8.80;99.90
2723;DHT22;1369;53.216;10.396;2022-11-13T14:42:55;8.70;99.90
2723;DHT22;1369;53.216;10.396;2022-11-13T14:45:27;8.80;99.90
2723;DHT22;1369;53.216;10.396;2022-11-13T14:47:58;8.80;99.90
2723;DHT22;1369;53.216;10.396;2022-11-13T14:52:59;8.70;99.90
2723;DHT22;1369;53.216;10.396;2022-11-13T14:55:31;8.80;99.90
2723;DHT22;1369;53.216;10.396;2022-11-13T14:57:57;8.80;99.90
2723;DHT22;1369;53.216;10.396;2022-11-13T15:02:56;8.80;99.90
2723;DHT22;1369;53.216;10.396;2022-11-13T15:05:22;8.80;99.90
2723;DHT22;1369;53.216;10.396;2022-11-13T15:07:48;8.80;99.90
2723;DHT22;1369;53.216;10.396;2022-11-13T15:10:19;8.80;99.90
2723;DHT22;1369;53.216;10.396;2022-11-13T15:12:45;8.80;99.90
2723;DHT22;1369;53.216;10.396;2022-11-13T15:15:15;8.80;99.90
2723;DHT22;1369;53.216;10.396;2022-11-13T15:17:41;8.80;99.90
2723;DHT22;1369;53.216;10.396;2022-11-13T15:20:30;8.80;99.90
2723;DHT22;1369;53.216;10.396;2022-11-13T15:22:57;8.80;99.90
2723;DHT22;1369;53.216;10.396;2022-11-13T15:25:24;8.80;99.90
2723;DHT22;1369;53.216;10.396;2022-11-13T15:27:50;8.80;99.90
2723;DHT22;1369;53.216;10.396;2022-11-13T15:30:17;8.80;99.90
2723;DHT22;1369;53.216;10.396;2022-11-13T15:32:43;8.80;99.90
2723;DHT22;1369;53.216;10.396;2022-11-13T15:35:13;8.80;99.90
2723;DHT22;1369;53.216;10.396;2022-11-13T15:37:39;8.80;99.90
2723;DHT22;1369;53.216;10.396;2022-11-13T15:40:05;8.80;99.90
2723;DHT22;1369;53.216;10.396;2022-11-13T15:42:32;8.80;99.90
2723;DHT22;1369;53.216;10.396;2022-11-13T15:44:59;8.90;99.90
2723;DHT22;1369;53.216;10.396;2022-11-13T15:49:50;8.90;99.90
2723;DHT22;1369;53.216;10.396;2022-11-13T15:52:15;8.90;99.90
2723;DHT22;1369;53.216;10.396;2022-11-13T15:54:41;8.90;99.90
2723;DHT22;1369;53.216;10.396;2022-11-13T15:57:31;8.90;99.90
2723;DHT22;1369;53.216;10.396;2022-11-13T15:59:56;8.90;99.90
2723;DHT22;1369;53.216;10.396;2022-11-13T16:02:22;8.90;99.90
2723;DHT22;1369;53.216;10.396;2022-11-13T16:04:47;8.90;99.90
2723;DHT22;1369;53.216;10.396;2022-11-13T16:07:15;8.90;99.90
2723;DHT22;1369;53.216;10.396;2022-11-13T16:09:42;8.90;99.90
2723;DHT22;1369;53.216;10.396;2022-11-13T16:12:12;8.90;99.90
2723;DHT22;1369;53.216;10.396;2022-11-13T16:14:38;8.90;99.90
2723;DHT22;1369;53.216;10.396;2022-11-13T16:17:15;9.00;99.90
2723;DHT22;1369;53.216;10.396;2022-11-13T16:19:46;9.00;99.90
2723;DHT22;1369;53.216;10.396;2022-11-13T16:22:23;9.00;99.90
2723;DHT22;1369;53.216;10.396;2022-11-13T16:24:49;9.00;99.90
2723;DHT22;1369;53.216;10.396;2022-11-13T16:27:27;9.00;99.90
2723;DHT22;1369;53.216;10.396;2022-11-13T16:29:53;9.00;99.90
2723;DHT22;1369;53.216;10.396;2022-11-13T16:32:18;9.00;99.90
2723;DHT22;1369;53.216;10.396;2022-11-13T16:34:45;9.00;99.90
2723;DHT22;1369;53.216;10.396;2022-11-13T16:37:18;9.10;99.90
2723;DHT22;1369;53.216;10.396;2022-11-13T16:39:44;9.10;99.90
2723;DHT22;1369;53.216;10.396;2022-11-13T16:42:11;9.10;99.90
2723;DHT22;1369;53.216;10.396;2022-11-13T16:44:37;9.10;99.90
2723;DHT22;1369;53.216;10.396;2022-11-13T16:47:22;9.10;99.90
2723;DHT22;1369;53.216;10.396;2022-11-13T16:49:49;9.10;99.90
2723;DHT22;1369;53.216;10.396;2022-11-13T16:52:14;9.10;99.90
2723;DHT22;1369;53.216;10.396;2022-11-13T16:54:40;9.20;99.90
2723;DHT22;1369;53.216;10.396;2022-11-13T16:57:11;9.20;99.90
2723;DHT22;1369;53.216;10.396;2022-11-13T16:59:37;9.20;99.90
2723;DHT22;1369;53.216;10.396;2022-11-13T17:02:09;9.20;99.90
2723;DHT22;1369;53.216;10.396;2022-11-13T17:04:36;9.20;99.90
2723;DHT22;1369;53.216;10.396;2022-11-13T17:07:01;9.20;99.90
2723;DHT22;1369;53.216;10.396;2022-11-13T17:09:27;9.20;99.90
2723;DHT22;1369;53.216;10.396;2022-11-13T17:11:53;9.20;99.90
2723;DHT22;1369;53.216;10.396;2022-11-13T17:14:19;9.20;99.90
2723;DHT22;1369;53.216;10.396;2022-11-13T17:16:44;9.20;99.90
2723;DHT22;1369;53.216;10.396;2022-11-13T17:19:12;9.30;99.90
2723;DHT22;1369;53.216;10.396;2022-11-13T17:21:38;9.20;99.90
2723;DHT22;1369;53.216;10.396;2022-11-13T17:24:03;9.20;99.90
2723;DHT22;1369;53.216;10.396;2022-11-13T17:26:30;9.20;99.90
2723;DHT22;1369;53.216;10.396;2022-11-13T17:28:56;9.20;99.90
2723;DHT22;1369;53.216;10.396;2022-11-13T17:31:23;9.30;99.90
2723;DHT22;1369;53.216;10.396;2022-11-13T17:33:51;9.30;99.90
2723;DHT22;1369;53.216;10.396;2022-11-13T17:36:17;9.30;99.90
2723;DHT22;1369;53.216;10.396;2022-11-13T17:38:43;9.30;99.90
2723;DHT22;1369;53.216;10.396;2022-11-13T17:41:10;9.30;99.90
2723;DHT22;1369;53.216;10.396;2022-11-13T17:43:38;9.30;99.90
2723;DHT22;1369;53.216;10.396;2022-11-13T17:46:04;9.30;99.90
2723;DHT22;1369;53.216;10.396;2022-11-13T17:48:31;9.30;99.90
2723;DHT22;1369;53.216;10.396;2022-11-13T17:51:01;9.30;99.90
2723;DHT22;1369;53.216;10.396;2022-11-13T17:53:28;9.30;99.90
2723;DHT22;1369;53.216;10.396;2022-11-13T17:55:55;9.30;99.90
2723;DHT22;1369;53.216;10.396;2022-11-13T17:58:21;9.30;99.90
2723;DHT22;1369;53.216;10.396;2022-11-13T18:00:48;9.40;99.90
2723;DHT22;1369;53.216;10.396;2022-11-13T18:03:13;9.40;99.90
2723;DHT22;1369;53.216;10.396;2022-11-13T18:05:38;9.40;99.90
2723;DHT22;1369;53.216;10.396;2022-11-13T18:08:04;9.40;99.90
2723;DHT22;1369;53.216;10.396;2022-11-13T18:10:30;9.40;99.90
2723;DHT22;1369;53.216;10.396;2022-11-13T18:12:56;9.40;99.90
2723;DHT22;1369;53.216;10.396;2022-11-13T18:15:21;9.40;99.90
2723;DHT22;1369;53.216;10.396;2022-11-13T18:17:47;9.40;99.90
2723;DHT22;1369;53.216;10.396;2022-11-13T18:20:12;9.40;99.90
2723;DHT22;1369;53.216;10.396;2022-11-13T18:22:38;9.40;99.90
2723;DHT22;1369;53.216;10.396;2022-11-13T18:25:03;9.30;99.90
2723;DHT22;1369;53.216;10.396;2022-11-13T18:27:29;9.40;99.90
2723;DHT22;1369;53.216;10.396;2022-11-13T18:29:55;9.30;99.90
2723;DHT22;1369;53.216;10.396;2022-11-13T18:32:20;9.30;99.90
2723;DHT22;1369;53.216;10.396;2022-11-13T18:34:46;9.30;99.90
2723;DHT22;1369;53.216;10.396;2022-11-13T18:37:11;9.30;99.90
2723;DHT22;1369;53.216;10.396;2022-11-13T18:39:37;9.30;99.90
2723;DHT22;1369;53.216;10.396;2022-11-13T18:42:02;9.30;99.90
2723;DHT22;1369;53.216;10.396;2022-11-13T18:44:28;9.30;99.90
2723;DHT22;1369;53.216;10.396;2022-11-13T18:46:54;9.30;99.90
2723;DHT22;1369;53.216;10.396;2022-11-13T18:49:19;9.30;99.90
2723;DHT22;1369;53.216;10.396;2022-11-13T18:51:45;9.30;99.90
2723;DHT22;1369;53.216;10.396;2022-11-13T18:54:10;9.30;99.90
2723;DHT22;1369;53.216;10.396;2022-11-13T18:56:37;9.20;99.90
2723;DHT22;1369;53.216;10.396;2022-11-13T18:59:06;9.20;99.90
2723;DHT22;1369;53.216;10.396;2022-11-13T19:01:32;9.10;99.90
2723;DHT22;1369;53.216;10.396;2022-11-13T19:04:00;9.10;99.90
2723;DHT22;1369;53.216;10.396;2022-11-13T19:06:26;9.00;99.90
2723;DHT22;1369;53.216;10.396;2022-11-13T19:09:00;9.00;99.90
2723;DHT22;1369;53.216;10.396;2022-11-13T19:11:28;8.90;99.90
2723;DHT22;1369;53.216;10.396;2022-11-13T19:13:54;8.90;99.90
2723;DHT22;1369;53.216;10.396;2022-11-13T19:16:22;8.90;99.90
2723;DHT22;1369;53.216;10.396;2022-11-13T19:18:56;8.80;99.90
2723;DHT22;1369;53.216;10.396;2022-11-13T19:21:24;8.70;99.90
2723;DHT22;1369;53.216;10.396;2022-11-13T19:23:50;8.70;99.90
2723;DHT22;1369;53.216;10.396;2022-11-13T19:26:16;8.50;99.90
2723;DHT22;1369;53.216;10.396;2022-11-13T19:28:45;8.40;99.90
2723;DHT22;1369;53.216;10.396;2022-11-13T19:31:16;8.30;99.90
2723;DHT22;1369;53.216;10.396;2022-11-13T19:33:42;8.20;99.90
2723;DHT22;1369;53.216;10.396;2022-11-13T19:36:13;8.10;99.90
2723;DHT22;1369;53.216;10.396;2022-11-13T19:38:40;8.00;99.90
2723;DHT22;1369;53.216;10.396;2022-11-13T19:41:06;7.90;99.90
2723;DHT22;1369;53.216;10.396;2022-11-13T19:43:37;7.80;99.90
2723;DHT22;1369;53.216;10.396;2022-11-13T19:46:04;7.80;99.90
2723;DHT22;1369;53.216;10.396;2022-11-13T19:48:31;7.70;99.90
2723;DHT22;1369;53.216;10.396;2022-11-13T19:51:04;7.60;99.90
2723;DHT22;1369;53.216;10.396;2022-11-13T19:53:30;7.60;99.90
2723;DHT22;1369;53.216;10.396;2022-11-13T19:55:57;7.50;99.90
2723;DHT22;1369;53.216;10.396;2022-11-13T19:58:22;7.50;99.90
2723;DHT22;1369;53.216;10.396;2022-11-13T20:00:48;7.50;99.90
2723;DHT22;1369;53.216;10.396;2022-11-13T20:03:14;7.50;99.90
2723;DHT22;1369;53.216;10.396;2022-11-13T20:05:41;7.40;99.90
2723;DHT22;1369;53.216;10.396;2022-11-13T20:08:07;7.40;99.90
2723;DHT22;1369;53.216;10.396;2022-11-13T20:10:32;7.40;99.90
2723;DHT22;1369;53.216;10.396;2022-11-13T20:12:58;7.40;99.90
2723;DHT22;1369;53.216;10.396;2022-11-13T20:15:24;7.30;99.90
2723;DHT22;1369;53.216;10.396;2022-11-13T20:17:49;7.30;99.90
2723;DHT22;1369;53.216;10.396;2022-11-13T20:20:15;7.30;99.90
2723;DHT22;1369;53.216;10.396;2022-11-13T20:22:41;7.20;99.90
2723;DHT22;1369;53.216;10.396;2022-11-13T20:25:06;7.20;99.90
2723;DHT22;1369;53.216;10.396;2022-11-13T20:27:32;7.30;99.90
2723;DHT22;1369;53.216;10.396;2022-11-13T20:29:58;7.20;99.90
2723;DHT22;1369;53.216;10.396;2022-11-13T20:32:23;7.20;99.90
2723;DHT22;1369;53.216;10.396;2022-11-13T20:34:49;7.20;99.90
2723;DHT22;1369;53.216;10.396;2022-11-13T20:37:14;7.10;99.90
2723;DHT22;1369;53.216;10.396;2022-11-13T20:39:40;7.10;99.90
2723;DHT22;1369;53.216;10.396;2022-11-13T20:42:06;7.10;99.90
2723;DHT22;1369;53.216;10.396;2022-11-13T20:44:32;7.10;99.90
2723;DHT22;1369;53.216;10.396;2022-11-13T20:46:58;7.10;99.90
2723;DHT22;1369;53.216;10.396;2022-11-13T20:49:23;7.10;99.90
2723;DHT22;1369;53.216;10.396;2022-11-13T20:51:49;7.10;99.90
2723;DHT22;1369;53.216;10.396;2022-11-13T20:54:14;7.10;99.90
2723;DHT22;1369;53.216;10.396;2022-11-13T20:56:40;7.00;99.90
2723;DHT22;1369;53.216;10.396;2022-11-13T20:59:05;7.00;99.90
2723;DHT22;1369;53.216;10.396;2022-11-13T21:01:32;7.00;99.90
2723;DHT22;1369;53.216;10.396;2022-11-13T21:03:59;7.00;99.90
2723;DHT22;1369;53.216;10.396;2022-11-13T21:06:25;6.90;99.90
2723;DHT22;1369;53.216;10.396;2022-11-13T21:08:51;6.90;99.90
2723;DHT22;1369;53.216;10.396;2022-11-13T21:11:21;6.90;99.90
2723;DHT22;1369;53.216;10.396;2022-11-13T21:13:48;6.90;99.90
2723;DHT22;1369;53.216;10.396;2022-11-13T21:16:15;6.90;99.90
2723;DHT22;1369;53.216;10.396;2022-11-13T21:18:41;6.90;99.90
2723;DHT22;1369;53.216;10.396;2022-11-13T21:21:09;6.90;99.90
2723;DHT22;1369;53.216;10.396;2022-11-13T21:23:35;6.90;99.90
2723;DHT22;1369;53.216;10.396;2022-11-13T21:26:04;7.00;99.90
2723;DHT22;1369;53.216;10.396;2022-11-13T21:28:30;7.10;99.90
2723;DHT22;1369;53.216;10.396;2022-11-13T21:31:00;7.20;99.90
2723;DHT22;1369;53.216;10.396;2022-11-13T21:33:26;7.30;99.90
2723;DHT22;1369;53.216;10.396;2022-11-13T21:35:51;7.40;99.90
2723;DHT22;1369;53.216;10.396;2022-11-13T21:38:17;7.40;99.90
2723;DHT22;1369;53.216;10.396;2022-11-13T21:40:42;7.50;99.90
2723;DHT22;1369;53.216;10.396;2022-11-13T21:43:28;7.60;99.90
2723;DHT22;1369;53.216;10.396;2022-11-13T21:45:53;7.70;99.90
2723;DHT22;1369;53.216;10.396;2022-11-13T21:48:19;7.70;99.90
2723;DHT22;1369;53.216;10.396;2022-11-13T21:50:44;7.80;99.90
2723;DHT22;1369;53.216;10.396;2022-11-13T21:53:10;7.80;99.90
2723;DHT22;1369;53.216;10.396;2022-11-13T21:55:36;7.90;99.90
2723;DHT22;1369;53.216;10.396;2022-11-13T21:58:01;7.90;99.90
2723;DHT22;1369;53.216;10.396;2022-11-13T22:00:27;7.90;99.90
2723;DHT22;1369;53.216;10.396;2022-11-13T22:02:52;7.90;99.90
2723;DHT22;1369;53.216;10.396;2022-11-13T22:05:18;8.00;99.90
2723;DHT22;1369;53.216;10.396;2022-11-13T22:07:43;8.00;99.90
2723;DHT22;1369;53.216;10.396;2022-11-13T22:10:09;8.00;99.90
2723;DHT22;1369;53.216;10.396;2022-11-13T22:12:34;8.00;99.90
2723;DHT22;1369;53.216;10.396;2022-11-13T22:15:00;8.10;99.90
2723;DHT22;1369;53.216;10.396;2022-11-13T22:17:25;8.10;99.90
2723;DHT22;1369;53.216;10.396;2022-11-13T22:19:50;8.10;99.90
2723;DHT22;1369;53.216;10.396;2022-11-13T22:22:16;8.10;99.90
2723;DHT22;1369;53.216;10.396;2022-11-13T22:24:41;8.10;99.90
2723;DHT22;1369;53.216;10.396;2022-11-13T22:27:07;8.10;99.90
2723;DHT22;1369;53.216;10.396;2022-11-13T22:29:34;8.10;99.90
2723;DHT22;1369;53.216;10.396;2022-11-13T22:32:00;8.10;99.90
2723;DHT22;1369;53.216;10.396;2022-11-13T22:34:25;8.10;99.90
2723;DHT22;1369;53.216;10.396;2022-11-13T22:36:51;8.10;99.90
2723;DHT22;1369;53.216;10.396;2022-11-13T22:39:16;8.20;99.90
2723;DHT22;1369;53.216;10.396;2022-11-13T22:41:43;8.20;99.90
2723;DHT22;1369;53.216;10.396;2022-11-13T22:44:11;8.10;99.90
2723;DHT22;1369;53.216;10.396;2022-11-13T22:46:37;8.20;99.90
2723;DHT22;1369;53.216;10.396;2022-11-13T22:49:03;8.20;99.90
2723;DHT22;1369;53.216;10.396;2022-11-13T22:51:32;8.20;99.90
2723;DHT22;1369;53.216;10.396;2022-11-13T22:54:01;8.20;99.90
2723;DHT22;1369;53.216;10.396;2022-11-13T22:56:29;8.20;99.90
2723;DHT22;1369;53.216;10.396;2022-11-13T22:58:57;8.20;99.90
2723;DHT22;1369;53.216;10.396;2022-11-13T23:01:28;8.10;99.90
2723;DHT22;1369;53.216;10.396;2022-11-13T23:03:54;8.10;99.90
2723;DHT22;1369;53.216;10.396;2022-11-13T23:06:23;8.10;99.90
2723;DHT22;1369;53.216;10.396;2022-11-13T23:08:49;8.10;99.90
2723;DHT22;1369;53.216;10.396;2022-11-13T23:11:39;8.20;99.90
2723;DHT22;1369;53.216;10.396;2022-11-13T23:14:09;8.10;99.90
2723;DHT22;1369;53.216;10.396;2022-11-13T23:16:35;8.10;99.90
2723;DHT22;1369;53.216;10.396;2022-11-13T23:19:01;8.10;99.90
2723;DHT22;1369;53.216;10.396;2022-11-13T23:21:27;8.10;99.90
2723;DHT22;1369;53.216;10.396;2022-11-13T23:23:54;8.10;99.90
2723;DHT22;1369;53.216;10.396;2022-11-13T23:26:21;8.10;99.90
2723;DHT22;1369;53.216;10.396;2022-11-13T23:28:46;8.10;99.90
2723;DHT22;1369;53.216;10.396;2022-11-13T23:31:12;8.10;99.90
2723;DHT22;1369;53.216;10.396;2022-11-13T23:33:38;8.10;99.90
2723;DHT22;1369;53.216;10.396;2022-11-13T23:36:06;8.10;99.90
2723;DHT22;1369;53.216;10.396;2022-11-13T23:38:32;8.10;99.90
2723;DHT22;1369;53.216;10.396;2022-11-13T23:40:58;8.10;99.90
2723;DHT22;1369;53.216;10.396;2022-11-13T23:43:26;8.00;99.90
2723;DHT22;1369;53.216;10.396;2022-11-13T23:45:51;8.00;99.90
2723;DHT22;1369;53.216;10.396;2022-11-13T23:48:17;8.00;99.90
2723;DHT22;1369;53.216;10.396;2022-11-13T23:50:46;8.00;99.90
2723;DHT22;1369;53.216;10.396;2022-11-13T23:53:12;8.00;99.90
2723;DHT22;1369;53.216;10.396;2022-11-13T23:55:38;7.90;99.90
2723;DHT22;1369;53.216;10.396;2022-11-13T23:58:06;7.90;99.90
